< < Back
Terminal Aerodrome Forecast


Current Version              Previous Versions:   1  2  3  4  5  6  7  8  9  

Terminal Aerodrome Forecast

414
FTUS44 KOHX 021730
TAFBNA
TAF
KBNA 021730Z 0218/0318 20009KT P6SM BKN080
     FM022000 21009G15KT P6SM VCTS BKN070CB
     FM030000 22007KT P6SM SCT030 BKN070
     FM030900 23006KT P6SM OVC025
     FM031100 24006KT 5SM BR OVC015=



Latest METAR

627
SAUS70 KWBC 030200 RRF
MTRBNA
METAR KBNA 030153Z 23006KT 10SM FEW025 BKN060 BKN100 BKN250 25/23 A2987
RMK AO2 SLP106 T02500228


USA.gov is the U.S. government's official web portal to all federal, state and local government web resources and services.